createdAt,value
2022-09-17T00:01:22.266Z,100.00
2022-09-17T00:03:57.376Z,100.00
2022-09-17T00:06:25.539Z,100.00
2022-09-17T00:08:53.716Z,100.00
2022-09-17T00:11:26.503Z,100.00
2022-09-17T00:13:53.916Z,100.00
2022-09-17T00:16:39.982Z,100.00
2022-09-17T00:19:08.393Z,100.00
2022-09-17T00:21:37.286Z,100.00
2022-09-17T00:24:08.212Z,100.00
2022-09-17T00:26:34.952Z,100.00
2022-09-17T00:29:04.768Z,100.00
2022-09-17T00:31:31.995Z,100.00
2022-09-17T00:34:04.013Z,100.00
2022-09-17T00:36:30.681Z,100.00
2022-09-17T00:38:59.037Z,100.00
2022-09-17T00:41:31.673Z,100.00
2022-09-17T00:44:00.850Z,100.00
2022-09-17T00:46:38.539Z,100.00
2022-09-17T00:49:13.755Z,100.00
2022-09-17T00:51:47.750Z,100.00
2022-09-17T00:54:14.183Z,100.00
2022-09-17T00:56:41.620Z,100.00
2022-09-17T00:59:08.610Z,100.00
2022-09-17T01:01:36.151Z,100.00
2022-09-17T01:04:03.421Z,100.00
2022-09-17T01:06:52.492Z,100.00
2022-09-17T01:09:40.683Z,100.00
2022-09-17T01:12:20.982Z,100.00
2022-09-17T01:15:22.718Z,100.00
2022-09-17T01:17:59.522Z,100.00
2022-09-17T01:20:43.951Z,100.00
2022-09-17T01:23:40.964Z,100.00
2022-09-17T01:26:43.769Z,100.00
2022-09-17T01:29:28.719Z,100.00
2022-09-17T01:32:01.714Z,100.00
2022-09-17T01:34:36.356Z,100.00
2022-09-17T01:37:22.653Z,100.00
2022-09-17T01:40:05.405Z,100.00
2022-09-17T01:42:45.039Z,100.00
2022-09-17T01:45:29.987Z,100.00
2022-09-17T01:48:07.053Z,100.00
2022-09-17T01:50:40.587Z,100.00
2022-09-17T01:53:11.181Z,100.00
2022-09-17T01:55:40.499Z,100.00
2022-09-17T01:58:25.438Z,100.00
2022-09-17T02:01:01.590Z,100.00
2022-09-17T02:03:37.650Z,100.00
2022-09-17T02:06:07.318Z,100.00
2022-09-17T02:08:47.645Z,100.00
2022-09-17T02:11:17.040Z,100.00
2022-09-17T02:13:52.162Z,100.00
2022-09-17T02:16:27.486Z,100.00
2022-09-17T02:18:56.016Z,100.00
2022-09-17T02:21:47.048Z,100.00
2022-09-17T02:24:23.391Z,100.00
2022-09-17T02:27:14.787Z,100.00
2022-09-17T02:29:43.637Z,100.00
2022-09-17T02:32:12.138Z,100.00
2022-09-17T02:34:39.621Z,100.00
2022-09-17T02:37:06.999Z,100.00
2022-09-17T02:39:33.704Z,100.00
2022-09-17T02:42:06.448Z,100.00
2022-09-17T02:44:48.020Z,100.00
2022-09-17T02:47:35.929Z,100.00
2022-09-17T02:50:16.054Z,100.00
2022-09-17T02:53:22.988Z,100.00
2022-09-17T02:56:07.463Z,100.00
2022-09-17T02:59:09.361Z,100.00
2022-09-17T03:01:48.915Z,100.00
2022-09-17T03:04:18.501Z,100.00
2022-09-17T03:06:49.062Z,100.00
2022-09-17T03:09:18.131Z,100.00
2022-09-17T03:11:44.764Z,100.00
2022-09-17T03:14:11.078Z,100.00
2022-09-17T03:16:37.483Z,100.00
2022-09-17T03:19:04.029Z,100.00
2022-09-17T03:21:33.041Z,100.00
2022-09-17T03:24:00.254Z,100.00
2022-09-17T03:26:27.616Z,100.00
2022-09-17T03:28:54.061Z,100.00
2022-09-17T03:31:23.199Z,100.00
2022-09-17T03:33:50.165Z,100.00
2022-09-17T03:36:18.846Z,100.00
2022-09-17T03:38:45.374Z,100.00
2022-09-17T03:41:11.754Z,100.00
2022-09-17T03:43:39.768Z,100.00
2022-09-17T03:46:06.660Z,100.00
2022-09-17T03:48:36.939Z,100.00
2022-09-17T03:51:05.795Z,100.00
2022-09-17T03:53:33.032Z,100.00
2022-09-17T03:56:04.005Z,100.00
2022-09-17T03:58:31.359Z,100.00
2022-09-17T04:00:58.202Z,100.00
2022-09-17T04:03:26.306Z,100.00
2022-09-17T04:05:52.942Z,100.00
2022-09-17T04:08:19.677Z,100.00
2022-09-17T04:10:46.668Z,100.00
2022-09-17T04:13:14.500Z,100.00
2022-09-17T04:15:41.547Z,100.00
2022-09-17T04:18:08.163Z,100.00
2022-09-17T04:20:36.807Z,100.00
2022-09-17T04:23:03.657Z,100.00
2022-09-17T04:25:32.341Z,100.00
2022-09-17T04:27:58.687Z,100.00
2022-09-17T04:30:25.073Z,100.00
2022-09-17T04:32:51.473Z,100.00
2022-09-17T04:35:20.355Z,100.00
2022-09-17T04:37:57.354Z,100.00
2022-09-17T04:40:25.660Z,100.00
2022-09-17T04:42:53.324Z,100.00
2022-09-17T04:45:20.426Z,100.00
2022-09-17T04:47:50.894Z,100.00
2022-09-17T04:50:23.732Z,100.00
2022-09-17T04:52:50.274Z,100.00
2022-09-17T04:55:16.810Z,100.00
2022-09-17T04:57:48.420Z,100.00
2022-09-17T05:00:18.101Z,100.00
2022-09-17T05:02:48.978Z,100.00
2022-09-17T05:05:16.803Z,100.00
2022-09-17T05:07:43.393Z,100.00
2022-09-17T05:10:14.397Z,100.00
2022-09-17T05:12:40.834Z,100.00
2022-09-17T05:15:07.810Z,100.00
2022-09-17T05:17:34.251Z,100.00
2022-09-17T05:20:00.623Z,100.00
2022-09-17T05:22:27.079Z,100.00
2022-09-17T05:24:53.547Z,100.00
2022-09-17T05:27:22.596Z,100.00
2022-09-17T05:29:48.974Z,100.00
2022-09-17T05:32:15.692Z,100.00
2022-09-17T05:34:42.155Z,100.00
2022-09-17T05:37:15.191Z,100.00
2022-09-17T05:39:44.432Z,100.00
2022-09-17T05:42:10.820Z,100.00
2022-09-17T05:44:37.135Z,100.00
2022-09-17T05:47:03.635Z,100.00
2022-09-17T05:49:30.091Z,100.00
2022-09-17T05:51:58.962Z,100.00
2022-09-17T05:54:25.375Z,100.00
2022-09-17T05:56:54.811Z,100.00
2022-09-17T05:59:21.493Z,100.00
2022-09-17T06:01:48.457Z,100.00
2022-09-17T06:04:17.948Z,100.00
2022-09-17T06:06:44.583Z,100.00
2022-09-17T06:09:14.524Z,100.00
2022-09-17T06:11:40.947Z,100.00
2022-09-17T06:14:07.326Z,100.00
2022-09-17T06:16:34.113Z,100.00
2022-09-17T06:19:00.707Z,100.00
2022-09-17T06:21:27.213Z,100.00
2022-09-17T06:23:55.908Z,100.00
2022-09-17T06:26:22.249Z,100.00
2022-09-17T06:28:48.631Z,100.00
2022-09-17T06:31:15.164Z,100.00
2022-09-17T06:33:43.834Z,100.00
2022-09-17T06:36:14.190Z,100.00
2022-09-17T06:38:43.506Z,100.00
2022-09-17T06:41:09.854Z,100.00
2022-09-17T06:43:36.219Z,100.00
2022-09-17T06:46:06.515Z,100.00
2022-09-17T06:48:38.719Z,100.00
2022-09-17T06:51:06.412Z,100.00
2022-09-17T06:53:38.302Z,100.00
2022-09-17T06:56:07.025Z,100.00
2022-09-17T06:58:36.989Z,100.00
2022-09-17T07:01:07.529Z,100.00
2022-09-17T07:03:34.217Z,100.00
2022-09-17T07:06:00.696Z,100.00
2022-09-17T07:08:27.477Z,100.00
2022-09-17T07:10:57.644Z,100.00
2022-09-17T07:13:25.164Z,100.00
2022-09-17T07:15:56.474Z,100.00
2022-09-17T07:18:23.291Z,100.00
2022-09-17T07:20:57.663Z,100.00
2022-09-17T07:23:25.385Z,100.00
2022-09-17T07:25:53.994Z,100.00
2022-09-17T07:28:20.959Z,100.00
2022-09-17T07:30:47.367Z,100.00
2022-09-17T07:33:16.585Z,100.00
2022-09-17T07:35:42.989Z,100.00
2022-09-17T07:38:09.410Z,100.00
2022-09-17T07:40:41.027Z,98.55
2022-09-17T07:43:08.895Z,99.78
2022-09-17T07:45:35.295Z,100.00
2022-09-17T07:48:01.774Z,93.77
2022-09-17T07:50:28.447Z,98.01
2022-09-17T07:52:56.960Z,96.86
2022-09-17T07:55:25.458Z,97.32
2022-09-17T07:57:52.425Z,96.20
2022-09-17T08:00:19.375Z,97.80
2022-09-17T08:02:45.827Z,93.83
2022-09-17T08:05:12.409Z,94.73
2022-09-17T08:07:38.814Z,92.66
2022-09-17T08:10:06.071Z,94.45
2022-09-17T08:12:32.435Z,89.47
2022-09-17T08:14:58.773Z,88.81
2022-09-17T08:17:25.168Z,90.51
2022-09-17T08:19:51.531Z,93.31
2022-09-17T08:22:17.875Z,88.79
2022-09-17T08:24:44.672Z,90.42
2022-09-17T08:27:11.033Z,88.24
2022-09-17T08:29:37.404Z,89.48
2022-09-17T08:32:03.876Z,87.11
2022-09-17T08:34:30.299Z,87.11
2022-09-17T08:36:56.679Z,87.15
2022-09-17T08:39:25.437Z,85.77
2022-09-17T08:42:10.543Z,82.81
2022-09-17T08:44:42.593Z,84.39
2022-09-17T08:47:27.540Z,79.24
2022-09-17T08:50:08.229Z,80.42
2022-09-17T08:53:16.563Z,81.63
2022-09-17T08:55:47.005Z,85.46
2022-09-17T08:58:40.729Z,82.62
2022-09-17T09:01:09.892Z,82.62
2022-09-17T09:03:51.401Z,79.96
2022-09-17T09:06:21.693Z,75.48
2022-09-17T09:08:56.646Z,80.97
2022-09-17T09:11:30.964Z,81.27
2022-09-17T09:14:32.295Z,81.95
2022-09-17T09:17:03.388Z,81.09
2022-09-17T09:19:34.039Z,79.96
2022-09-17T09:22:03.403Z,81.23
2022-09-17T09:24:41.488Z,73.17
2022-09-17T09:27:28.029Z,76.33
2022-09-17T09:30:06.627Z,74.12
2022-09-17T09:32:57.097Z,78.72
2022-09-17T09:35:28.122Z,76.24
2022-09-17T09:38:01.194Z,75.96
2022-09-17T09:40:45.739Z,76.98
2022-09-17T09:43:21.115Z,71.36
2022-09-17T09:46:14.755Z,73.77
2022-09-17T09:48:55.940Z,74.54
2022-09-17T09:51:33.669Z,69.57
2022-09-17T09:54:18.540Z,72.83
2022-09-17T09:56:56.068Z,71.82
2022-09-17T09:59:22.935Z,68.79
2022-09-17T10:01:49.503Z,66.53
2022-09-17T10:04:22.724Z,66.95
2022-09-17T10:07:07.567Z,65.12
2022-09-17T10:09:37.045Z,66.34
2022-09-17T10:12:03.610Z,66.16
2022-09-17T10:14:33.130Z,65.15
2022-09-17T10:17:14.710Z,69.71
2022-09-17T10:19:42.410Z,67.42
2022-09-17T10:22:32.283Z,63.61
2022-09-17T10:25:00.899Z,65.17
2022-09-17T10:27:28.591Z,58.84
2022-09-17T10:30:13.733Z,61.05
2022-09-17T10:32:40.079Z,63.88
2022-09-17T10:35:28.203Z,62.77
2022-09-17T10:37:54.981Z,60.93
2022-09-17T10:40:21.399Z,60.23
2022-09-17T10:42:49.884Z,59.92
2022-09-17T10:45:29.328Z,60.72
2022-09-17T10:47:58.325Z,61.31
2022-09-17T10:50:28.801Z,58.46
2022-09-17T10:53:04.356Z,55.51
2022-09-17T10:55:52.243Z,58.69
2022-09-17T10:58:21.938Z,57.86
2022-09-17T11:01:00.521Z,56.76
2022-09-17T11:04:04.687Z,56.54
2022-09-17T11:06:49.367Z,58.33
2022-09-17T11:10:05.896Z,59.31
2022-09-17T11:12:39.309Z,57.13
2022-09-17T11:15:28.590Z,57.48
2022-09-17T11:18:23.432Z,59.67
2022-09-17T11:21:13.848Z,58.87
2022-09-17T11:23:52.110Z,59.26
2022-09-17T11:26:35.467Z,61.52
2022-09-17T11:29:04.750Z,61.23
2022-09-17T11:31:37.147Z,54.92
2022-09-17T11:34:32.766Z,60.04
2022-09-17T11:37:23.550Z,58.53
2022-09-17T11:39:57.656Z,59.51
2022-09-17T11:42:55.536Z,58.93
2022-09-17T11:45:36.506Z,59.37
2022-09-17T11:48:05.335Z,57.90
2022-09-17T11:50:37.171Z,60.61
2022-09-17T11:53:15.176Z,62.13
2022-09-17T11:56:02.446Z,62.15
2022-09-17T11:59:11.040Z,59.42
2022-09-17T12:01:49.445Z,60.33
2022-09-17T12:04:40.684Z,59.08
2022-09-17T12:07:31.444Z,62.43
2022-09-17T12:10:25.011Z,61.74
2022-09-17T12:13:07.228Z,62.73
2022-09-17T12:15:38.413Z,63.11
2022-09-17T12:18:30.408Z,61.90
2022-09-17T12:20:55.537Z,60.74
2022-09-17T12:23:37.105Z,60.26
2022-09-17T12:26:25.647Z,60.02
2022-09-17T12:29:21.381Z,58.16
2022-09-17T12:32:15.950Z,61.74
2022-09-17T12:34:56.180Z,61.20
2022-09-17T12:37:44.076Z,58.97
2022-09-17T12:40:39.303Z,58.30
2022-09-17T12:43:28.638Z,58.53
2022-09-17T12:46:32.628Z,58.48
2022-09-17T12:49:02.276Z,54.41
2022-09-17T12:51:39.855Z,57.19
2022-09-17T12:54:20.498Z,54.69
2022-09-17T12:57:07.113Z,55.85
2022-09-17T12:59:40.199Z,56.44
2022-09-17T13:02:31.753Z,56.38
2022-09-17T13:05:09.909Z,57.73
2022-09-17T13:08:01.921Z,58.55
2022-09-17T13:10:46.748Z,59.68
2022-09-17T13:13:28.147Z,59.07
2022-09-17T13:16:04.998Z,61.09
2022-09-17T13:18:59.329Z,58.36
2022-09-17T13:21:40.440Z,60.05
2022-09-17T13:24:29.790Z,58.08
2022-09-17T13:26:58.594Z,60.04
2022-09-17T13:29:44.185Z,61.76
2022-09-17T13:32:32.363Z,61.82
2022-09-17T13:35:18.665Z,62.03
2022-09-17T13:37:56.521Z,61.23
2022-09-17T13:40:30.471Z,61.34
2022-09-17T13:42:58.053Z,60.43
2022-09-17T13:45:26.480Z,61.71
2022-09-17T13:48:06.435Z,62.24
2022-09-17T13:50:32.870Z,58.95
2022-09-17T13:53:14.387Z,57.41
2022-09-17T13:55:51.398Z,59.47
2022-09-17T13:58:23.178Z,60.47
2022-09-17T14:00:55.939Z,59.11
2022-09-17T14:03:31.345Z,59.74
2022-09-17T14:06:24.608Z,59.19
2022-09-17T14:08:56.297Z,58.10
2022-09-17T14:11:25.317Z,57.46
2022-09-17T14:13:56.304Z,59.75
2022-09-17T14:16:25.649Z,60.88
2022-09-17T14:19:17.233Z,60.02
2022-09-17T14:22:02.036Z,60.74
2022-09-17T14:24:44.194Z,59.74
2022-09-17T14:27:10.460Z,58.05
2022-09-17T14:29:48.694Z,58.84
2022-09-17T14:32:21.904Z,60.82
2022-09-17T14:34:49.683Z,56.93
2022-09-17T14:37:20.648Z,59.20
2022-09-17T14:39:49.140Z,58.49
2022-09-17T14:42:23.850Z,57.78
2022-09-17T14:45:06.617Z,58.72
2022-09-17T14:47:33.125Z,56.87
2022-09-17T14:50:20.496Z,59.61
2022-09-17T14:52:54.409Z,57.30
2022-09-17T14:55:25.325Z,57.30
2022-09-17T14:58:02.419Z,58.50
2022-09-17T15:00:34.133Z,57.38
2022-09-17T15:03:00.700Z,58.08
2022-09-17T15:05:30.264Z,58.15
2022-09-17T15:08:16.570Z,57.64
2022-09-17T15:10:56.934Z,61.07
2022-09-17T15:13:26.543Z,59.22
2022-09-17T15:15:59.706Z,58.46
2022-09-17T15:18:52.591Z,59.94
2022-09-17T15:21:43.821Z,60.04
2022-09-17T15:24:35.162Z,57.20
2022-09-17T15:27:31.684Z,59.40
2022-09-17T15:30:03.416Z,59.08
2022-09-17T15:32:30.510Z,58.05
2022-09-17T15:35:15.474Z,59.06
2022-09-17T15:38:11.537Z,58.51
2022-09-17T15:40:39.177Z,58.81
2022-09-17T15:43:22.667Z,59.14
2022-09-17T15:45:49.183Z,58.58
2022-09-17T15:48:30.107Z,59.38
2022-09-17T15:50:58.452Z,59.91
2022-09-17T15:53:28.595Z,62.21
2022-09-17T15:56:15.252Z,61.38
2022-09-17T15:58:41.600Z,61.45
2022-09-17T16:01:13.866Z,60.94
2022-09-17T16:03:40.427Z,60.79
2022-09-17T16:06:19.002Z,60.03
2022-09-17T16:08:50.699Z,58.93
2022-09-17T16:11:22.094Z,61.53
2022-09-17T16:13:49.907Z,61.59
2022-09-17T16:16:21.860Z,59.55
2022-09-17T16:18:48.928Z,61.62
2022-09-17T16:21:17.277Z,62.44
2022-09-17T16:23:46.574Z,63.81
2022-09-17T16:26:23.856Z,62.38
2022-09-17T16:28:53.646Z,63.09
2022-09-17T16:31:20.919Z,63.93
2022-09-17T16:33:51.978Z,65.88
2022-09-17T16:36:18.760Z,65.24
2022-09-17T16:38:45.163Z,64.38
2022-09-17T16:41:11.512Z,65.13
2022-09-17T16:43:40.108Z,66.51
2022-09-17T16:46:10.352Z,68.87
2022-09-17T16:48:43.521Z,69.74
2022-09-17T16:51:12.125Z,71.77
2022-09-17T16:53:38.680Z,69.98
2022-09-17T16:56:09.160Z,69.92
2022-09-17T16:58:35.656Z,70.13
2022-09-17T17:01:13.955Z,69.80
2022-09-17T17:03:41.198Z,69.81
2022-09-17T17:06:19.309Z,73.47
2022-09-17T17:08:45.847Z,75.42
2022-09-17T17:11:12.488Z,81.37
2022-09-17T17:13:39.275Z,84.69
2022-09-17T17:16:13.210Z,86.23
2022-09-17T17:18:43.502Z,87.87
2022-09-17T17:21:11.753Z,87.44
2022-09-17T17:23:43.384Z,87.39
2022-09-17T17:26:10.002Z,88.31
2022-09-17T17:28:38.756Z,90.64
2022-09-17T17:31:08.184Z,93.33
2022-09-17T17:33:34.668Z,93.53
2022-09-17T17:36:07.616Z,91.63
2022-09-17T17:38:35.349Z,93.12
2022-09-17T17:41:02.952Z,93.67
2022-09-17T17:43:34.324Z,97.57
2022-09-17T17:46:05.158Z,100.00
2022-09-17T17:48:31.630Z,100.00
2022-09-17T17:51:08.496Z,100.00
2022-09-17T17:53:35.417Z,100.00
2022-09-17T17:56:06.438Z,100.00
2022-09-17T17:58:33.468Z,100.00
2022-09-17T18:01:00.538Z,100.00
2022-09-17T18:03:27.023Z,100.00
2022-09-17T18:06:01.343Z,100.00
2022-09-17T18:08:27.751Z,99.69
2022-09-17T18:10:56.010Z,100.00
2022-09-17T18:13:26.292Z,100.00
2022-09-17T18:16:02.357Z,98.99
2022-09-17T18:18:43.615Z,98.55
2022-09-17T18:21:14.084Z,97.81
2022-09-17T18:23:41.482Z,99.38
2022-09-17T18:26:11.291Z,99.07
2022-09-17T18:28:37.769Z,98.40
2022-09-17T18:31:08.229Z,96.72
2022-09-17T18:33:39.771Z,94.67
2022-09-17T18:36:06.350Z,93.49
2022-09-17T18:38:33.019Z,95.36
2022-09-17T18:41:04.426Z,95.81
2022-09-17T18:43:33.356Z,96.19
2022-09-17T18:46:00.842Z,93.50
2022-09-17T18:48:28.156Z,95.23
2022-09-17T18:51:08.732Z,93.78
2022-09-17T18:53:37.014Z,94.62
2022-09-17T18:56:19.391Z,93.03
2022-09-17T18:58:46.659Z,94.41
2022-09-17T19:01:16.674Z,92.23
2022-09-17T19:03:45.592Z,91.99
2022-09-17T19:06:15.217Z,91.63
2022-09-17T19:08:42.869Z,92.35
2022-09-17T19:11:09.795Z,87.79
2022-09-17T19:13:41.452Z,86.60
2022-09-17T19:16:08.651Z,88.40
2022-09-17T19:18:38.105Z,85.38
2022-09-17T19:21:07.533Z,88.14
2022-09-17T19:23:34.512Z,87.21
2022-09-17T19:26:17.419Z,89.68
2022-09-17T19:28:43.888Z,90.83
2022-09-17T19:31:12.780Z,91.12
2022-09-17T19:33:44.229Z,92.52
2022-09-17T19:36:12.600Z,94.48
2022-09-17T19:38:39.565Z,94.50
2022-09-17T19:41:09.302Z,94.93
2022-09-17T19:43:35.690Z,94.84
2022-09-17T19:46:05.404Z,95.39
2022-09-17T19:48:40.215Z,95.31
2022-09-17T19:51:07.165Z,96.06
2022-09-17T19:53:33.649Z,98.12
2022-09-17T19:56:03.604Z,97.92
2022-09-17T19:58:30.016Z,99.50
2022-09-17T20:01:00.222Z,98.83
2022-09-17T20:03:26.956Z,96.86
2022-09-17T20:06:05.413Z,95.64
2022-09-17T20:08:32.623Z,96.01
2022-09-17T20:11:07.292Z,96.34
2022-09-17T20:13:34.529Z,96.00
2022-09-17T20:16:12.931Z,96.38
2022-09-17T20:18:39.615Z,98.11
2022-09-17T20:21:08.322Z,97.32
2022-09-17T20:23:40.022Z,97.70
2022-09-17T20:26:09.229Z,96.01
2022-09-17T20:28:35.619Z,95.49
2022-09-17T20:31:16.921Z,96.74
2022-09-17T20:34:05.933Z,95.41
2022-09-17T20:36:35.290Z,99.09
2022-09-17T20:39:22.194Z,97.20
2022-09-17T20:41:48.826Z,96.71
2022-09-17T20:44:15.161Z,95.35
2022-09-17T20:46:41.761Z,96.75
2022-09-17T20:49:17.993Z,97.50
2022-09-17T20:51:44.347Z,97.40
2022-09-17T20:54:10.940Z,97.91
2022-09-17T20:56:37.357Z,96.86
2022-09-17T20:59:14.205Z,96.49
2022-09-17T21:01:46.878Z,95.88
2022-09-17T21:04:15.899Z,97.35
2022-09-17T21:06:43.753Z,97.00
2022-09-17T21:09:12.257Z,96.69
2022-09-17T21:11:38.717Z,95.03
2022-09-17T21:14:05.351Z,94.91
2022-09-17T21:16:39.138Z,95.87
2022-09-17T21:19:07.934Z,96.02
2022-09-17T21:21:34.650Z,96.33
2022-09-17T21:24:07.349Z,94.92
2022-09-17T21:26:34.785Z,96.39
2022-09-17T21:29:01.678Z,95.85
2022-09-17T21:31:32.581Z,97.31
2022-09-17T21:34:01.957Z,96.97
2022-09-17T21:36:30.871Z,97.61
2022-09-17T21:39:03.560Z,96.38
2022-09-17T21:41:30.086Z,96.82
2022-09-17T21:43:56.762Z,95.96
2022-09-17T21:46:26.397Z,96.92
2022-09-17T21:48:55.975Z,95.21
2022-09-17T21:51:25.561Z,95.35
2022-09-17T21:53:53.373Z,95.67
2022-09-17T21:56:21.086Z,96.09
2022-09-17T21:58:54.595Z,94.51
2022-09-17T22:01:27.143Z,96.39
2022-09-17T22:03:56.372Z,97.38
2022-09-17T22:06:31.360Z,97.76
2022-09-17T22:08:59.493Z,97.92
2022-09-17T22:11:33.797Z,96.39
2022-09-17T22:14:08.954Z,95.72
2022-09-17T22:16:40.137Z,96.44
2022-09-17T22:19:08.602Z,97.01
2022-09-17T22:21:37.777Z,97.14
2022-09-17T22:24:09.223Z,96.01
2022-09-17T22:26:39.490Z,95.65
2022-09-17T22:29:09.288Z,96.71
2022-09-17T22:31:36.040Z,96.17
2022-09-17T22:34:08.078Z,95.19
2022-09-17T22:36:37.558Z,96.43
2022-09-17T22:39:04.939Z,96.83
2022-09-17T22:41:34.117Z,95.51
2022-09-17T22:44:03.237Z,95.31
2022-09-17T22:46:32.737Z,96.16
2022-09-17T22:49:00.122Z,95.54
2022-09-17T22:51:28.879Z,96.35
2022-09-17T22:53:56.520Z,95.58
2022-09-17T22:56:26.992Z,94.05
2022-09-17T22:58:53.995Z,93.72
2022-09-17T23:01:24.695Z,95.68
2022-09-17T23:03:52.283Z,96.05
2022-09-17T23:06:24.933Z,95.05
2022-09-17T23:08:52.408Z,95.28
2022-09-17T23:11:31.033Z,94.76
2022-09-17T23:14:02.086Z,94.60
2022-09-17T23:16:35.759Z,95.13
2022-09-17T23:19:02.271Z,95.87
2022-09-17T23:21:28.861Z,95.39
2022-09-17T23:23:55.268Z,96.51
2022-09-17T23:26:26.396Z,96.60
2022-09-17T23:28:53.201Z,95.51
2022-09-17T23:31:21.202Z,93.89
2022-09-17T23:33:48.506Z,96.72
2022-09-17T23:36:19.338Z,96.31
2022-09-17T23:38:47.444Z,96.75
2022-09-17T23:41:35.529Z,96.20
2022-09-17T23:44:05.319Z,96.47
2022-09-17T23:46:33.472Z,94.97
2022-09-17T23:49:00.465Z,95.86
2022-09-17T23:51:30.684Z,96.46
2022-09-17T23:53:57.883Z,96.60
2022-09-17T23:56:26.549Z,97.49
2022-09-17T23:58:54.545Z,95.86
